sensor_id;sensor_type;location;lat;lon;timestamp;temperature;humidity
25628;DHT22;40915;50.826;4.356;2022-08-01T05:58:50;19.80;99.90
25628;DHT22;40915;50.826;4.356;2022-08-01T06:01:16;19.80;99.90
25628;DHT22;40915;50.826;4.356;2022-08-01T06:03:42;19.80;99.90
25628;DHT22;40915;50.826;4.356;2022-08-01T06:06:08;19.80;99.90
25628;DHT22;40915;50.826;4.356;2022-08-01T06:08:34;19.70;99.90
25628;DHT22;40915;50.826;4.356;2022-08-01T06:10:59;19.80;99.90
25628;DHT22;40915;50.826;4.356;2022-08-01T06:13:25;19.80;99.90
25628;DHT22;40915;50.826;4.356;2022-08-01T06:15:51;19.80;99.90
25628;DHT22;40915;50.826;4.356;2022-08-01T06:18:17;19.90;99.90
25628;DHT22;40915;50.826;4.356;2022-08-01T06:20:43;19.90;99.90
25628;DHT22;40915;50.826;4.356;2022-08-01T06:23:09;20.00;99.90
25628;DHT22;40915;50.826;4.356;2022-08-01T06:25:35;20.00;99.90
25628;DHT22;40915;50.826;4.356;2022-08-01T06:28:01;20.00;99.90
25628;DHT22;40915;50.826;4.356;2022-08-01T06:30:27;20.10;99.90
25628;DHT22;40915;50.826;4.356;2022-08-01T06:32:52;20.10;99.90
25628;DHT22;40915;50.826;4.356;2022-08-01T06:35:21;20.30;99.90
25628;DHT22;40915;50.826;4.356;2022-08-01T06:37:47;20.30;99.90
25628;DHT22;40915;50.826;4.356;2022-08-01T06:40:14;20.50;99.90
25628;DHT22;40915;50.826;4.356;2022-08-01T06:42:40;20.70;99.90
25628;DHT22;40915;50.826;4.356;2022-08-01T06:45:10;20.80;99.90
25628;DHT22;40915;50.826;4.356;2022-08-01T06:47:36;20.80;99.90
25628;DHT22;40915;50.826;4.356;2022-08-01T06:50:03;20.90;99.90
25628;DHT22;40915;50.826;4.356;2022-08-01T06:52:29;21.00;99.90
25628;DHT22;40915;50.826;4.356;2022-08-01T06:54:55;21.00;99.90
25628;DHT22;40915;50.826;4.356;2022-08-01T06:57:21;21.20;99.90
25628;DHT22;40915;50.826;4.356;2022-08-01T06:59:46;21.30;99.90
25628;DHT22;40915;50.826;4.356;2022-08-01T07:02:12;21.30;99.90
25628;DHT22;40915;50.826;4.356;2022-08-01T07:04:38;21.40;99.90
25628;DHT22;40915;50.826;4.356;2022-08-01T07:07:03;21.40;99.90
25628;DHT22;40915;50.826;4.356;2022-08-01T07:09:29;21.50;99.90
25628;DHT22;40915;50.826;4.356;2022-08-01T07:11:55;21.60;99.90
25628;DHT22;40915;50.826;4.356;2022-08-01T07:14:21;21.70;99.90
25628;DHT22;40915;50.826;4.356;2022-08-01T07:16:47;21.70;99.90
25628;DHT22;40915;50.826;4.356;2022-08-01T07:19:12;21.80;99.90
25628;DHT22;40915;50.826;4.356;2022-08-01T07:21:38;21.90;99.90
25628;DHT22;40915;50.826;4.356;2022-08-01T07:24:05;22.10;99.90
25628;DHT22;40915;50.826;4.356;2022-08-01T07:26:31;22.80;99.90
25628;DHT22;40915;50.826;4.356;2022-08-01T07:28:57;23.10;99.90
25628;DHT22;40915;50.826;4.356;2022-08-01T07:31:23;23.20;99.90
25628;DHT22;40915;50.826;4.356;2022-08-01T07:33:49;23.30;99.90
25628;DHT22;40915;50.826;4.356;2022-08-01T07:36:16;23.20;99.90
25628;DHT22;40915;50.826;4.356;2022-08-01T07:38:42;23.60;99.90
25628;DHT22;40915;50.826;4.356;2022-08-01T07:43:33;24.00;99.90
25628;DHT22;40915;50.826;4.356;2022-08-01T07:46:04;24.50;99.90
25628;DHT22;40915;50.826;4.356;2022-08-01T07:48:30;24.50;99.90
25628;DHT22;40915;50.826;4.356;2022-08-01T07:50:55;24.10;99.90
25628;DHT22;40915;50.826;4.356;2022-08-01T07:53:24;23.70;99.90
25628;DHT22;40915;50.826;4.356;2022-08-01T07:55:51;23.80;99.90
25628;DHT22;40915;50.826;4.356;2022-08-01T07:58:17;23.70;99.90
25628;DHT22;40915;50.826;4.356;2022-08-01T08:00:43;23.70;99.90
25628;DHT22;40915;50.826;4.356;2022-08-01T08:03:09;24.00;99.90
25628;DHT22;40915;50.826;4.356;2022-08-01T08:05:36;24.00;99.90
25628;DHT22;40915;50.826;4.356;2022-08-01T10:01:15;24.00;99.90
25628;DHT22;40915;50.826;4.356;2022-08-01T10:03:41;24.00;99.90
25628;DHT22;40915;50.826;4.356;2022-08-01T10:06:20;24.00;99.90
25628;DHT22;40915;50.826;4.356;2022-08-01T10:08:47;24.40;99.90
25628;DHT22;40915;50.826;4.356;2022-08-01T10:11:13;24.40;99.90
25628;DHT22;40915;50.826;4.356;2022-08-01T10:13:39;24.70;99.90
25628;DHT22;40915;50.826;4.356;2022-08-01T10:16:06;24.80;99.90
25628;DHT22;40915;50.826;4.356;2022-08-01T10:18:33;24.80;99.90
25628;DHT22;40915;50.826;4.356;2022-08-01T10:21:01;24.80;99.90
25628;DHT22;40915;50.826;4.356;2022-08-01T10:23:30;24.80;99.90
25628;DHT22;40915;50.826;4.356;2022-08-01T10:25:59;24.70;99.90
25628;DHT22;40915;50.826;4.356;2022-08-01T10:28:25;24.80;99.90
25628;DHT22;40915;50.826;4.356;2022-08-01T10:30:52;24.80;99.90
25628;DHT22;40915;50.826;4.356;2022-08-01T10:33:18;24.90;99.90
25628;DHT22;40915;50.826;4.356;2022-08-01T10:35:46;25.00;99.90
25628;DHT22;40915;50.826;4.356;2022-08-01T10:38:12;24.90;99.90
25628;DHT22;40915;50.826;4.356;2022-08-01T10:40:40;25.00;99.90
25628;DHT22;40915;50.826;4.356;2022-08-01T10:43:06;25.00;99.90
25628;DHT22;40915;50.826;4.356;2022-08-01T10:45:33;24.90;99.90
25628;DHT22;40915;50.826;4.356;2022-08-01T10:48:16;25.00;99.90
25628;DHT22;40915;50.826;4.356;2022-08-01T10:50:45;25.20;99.90
25628;DHT22;40915;50.826;4.356;2022-08-01T10:53:23;25.10;99.90
25628;DHT22;40915;50.826;4.356;2022-08-01T10:55:59;25.00;99.90
25628;DHT22;40915;50.826;4.356;2022-08-01T10:58:46;25.00;99.90
25628;DHT22;40915;50.826;4.356;2022-08-01T11:09:15;25.70;99.90
25628;DHT22;40915;50.826;4.356;2022-08-01T11:12:04;25.80;99.90
25628;DHT22;40915;50.826;4.356;2022-08-01T11:14:33;25.80;99.90
25628;DHT22;40915;50.826;4.356;2022-08-01T11:17:40;25.90;99.90
25628;DHT22;40915;50.826;4.356;2022-08-01T11:20:43;25.80;99.90
25628;DHT22;40915;50.826;4.356;2022-08-01T11:23:20;25.80;99.90
25628;DHT22;40915;50.826;4.356;2022-08-01T11:28:20;25.80;99.90
25628;DHT22;40915;50.826;4.356;2022-08-01T11:30:50;25.90;99.90
25628;DHT22;40915;50.826;4.356;2022-08-01T11:33:18;26.00;99.90
25628;DHT22;40915;50.826;4.356;2022-08-01T11:38:36;25.80;99.90
25628;DHT22;40915;50.826;4.356;2022-08-01T11:57:13;25.40;99.90
25628;DHT22;40915;50.826;4.356;2022-08-01T11:59:47;25.30;99.90
25628;DHT22;40915;50.826;4.356;2022-08-01T12:02:35;25.50;99.90
25628;DHT22;40915;50.826;4.356;2022-08-01T12:05:07;25.40;99.90
25628;DHT22;40915;50.826;4.356;2022-08-01T12:07:35;25.50;99.90
25628;DHT22;40915;50.826;4.356;2022-08-01T12:10:13;25.70;99.90
25628;DHT22;40915;50.826;4.356;2022-08-01T12:13:06;25.80;99.90
25628;DHT22;40915;50.826;4.356;2022-08-01T12:15:37;25.80;99.90
25628;DHT22;40915;50.826;4.356;2022-08-01T12:18:06;25.80;99.90
25628;DHT22;40915;50.826;4.356;2022-08-01T12:20:34;25.80;99.90
25628;DHT22;40915;50.826;4.356;2022-08-01T12:23:05;25.90;99.90
25628;DHT22;40915;50.826;4.356;2022-08-01T12:25:32;26.00;99.90
25628;DHT22;40915;50.826;4.356;2022-08-01T12:28:02;26.20;99.90
25628;DHT22;40915;50.826;4.356;2022-08-01T12:30:29;26.30;99.90
25628;DHT22;40915;50.826;4.356;2022-08-01T12:32:56;26.50;99.90
25628;DHT22;40915;50.826;4.356;2022-08-01T12:35:24;26.60;99.90
25628;DHT22;40915;50.826;4.356;2022-08-01T12:37:52;26.90;99.90
25628;DHT22;40915;50.826;4.356;2022-08-01T12:40:23;27.00;99.90
25628;DHT22;40915;50.826;4.356;2022-08-01T12:42:54;27.00;99.90
25628;DHT22;40915;50.826;4.356;2022-08-01T12:45:57;26.50;99.90
25628;DHT22;40915;50.826;4.356;2022-08-01T12:48:18;26.70;99.90
25628;DHT22;40915;50.826;4.356;2022-08-01T12:50:47;27.10;99.90
25628;DHT22;40915;50.826;4.356;2022-08-01T12:53:13;27.20;99.90
25628;DHT22;40915;50.826;4.356;2022-08-01T12:55:49;27.30;99.90
25628;DHT22;40915;50.826;4.356;2022-08-01T12:58:16;27.20;99.90
25628;DHT22;40915;50.826;4.356;2022-08-01T13:00:44;27.20;99.90
25628;DHT22;40915;50.826;4.356;2022-08-01T13:03:14;27.20;99.90
25628;DHT22;40915;50.826;4.356;2022-08-01T13:06:10;27.30;99.90
25628;DHT22;40915;50.826;4.356;2022-08-01T13:08:36;27.40;99.90
25628;DHT22;40915;50.826;4.356;2022-08-01T13:11:10;27.30;99.90
25628;DHT22;40915;50.826;4.356;2022-08-01T13:13:48;27.40;99.90
25628;DHT22;40915;50.826;4.356;2022-08-01T13:16:18;27.10;99.90
25628;DHT22;40915;50.826;4.356;2022-08-01T13:18:52;27.20;99.90
25628;DHT22;40915;50.826;4.356;2022-08-01T13:24:10;27.10;99.90
25628;DHT22;40915;50.826;4.356;2022-08-01T13:26:47;26.80;99.90
25628;DHT22;40915;50.826;4.356;2022-08-01T13:29:20;26.60;99.90
25628;DHT22;40915;50.826;4.356;2022-08-01T13:31:46;26.50;99.90
25628;DHT22;40915;50.826;4.356;2022-08-01T13:34:12;26.30;99.90
25628;DHT22;40915;50.826;4.356;2022-08-01T13:36:39;26.30;99.90
25628;DHT22;40915;50.826;4.356;2022-08-01T13:39:05;26.20;99.90
25628;DHT22;40915;50.826;4.356;2022-08-01T13:41:50;25.90;99.90
25628;DHT22;40915;50.826;4.356;2022-08-01T13:44:16;25.80;99.90
25628;DHT22;40915;50.826;4.356;2022-08-01T13:46:42;25.70;99.90
25628;DHT22;40915;50.826;4.356;2022-08-01T13:49:09;25.80;99.90
25628;DHT22;40915;50.826;4.356;2022-08-01T13:51:36;25.90;99.90
25628;DHT22;40915;50.826;4.356;2022-08-01T13:54:03;26.10;99.90
25628;DHT22;40915;50.826;4.356;2022-08-01T13:56:29;26.40;99.90
25628;DHT22;40915;50.826;4.356;2022-08-01T13:58:55;26.40;99.90
25628;DHT22;40915;50.826;4.356;2022-08-01T14:01:22;26.70;99.90
25628;DHT22;40915;50.826;4.356;2022-08-01T14:03:48;26.70;99.90
25628;DHT22;40915;50.826;4.356;2022-08-01T14:06:14;26.80;99.90
25628;DHT22;40915;50.826;4.356;2022-08-01T14:08:44;26.80;99.90
25628;DHT22;40915;50.826;4.356;2022-08-01T14:11:11;26.70;99.90
25628;DHT22;40915;50.826;4.356;2022-08-01T14:13:37;26.70;99.90
25628;DHT22;40915;50.826;4.356;2022-08-01T14:16:05;26.60;99.90
25628;DHT22;40915;50.826;4.356;2022-08-01T14:18:31;26.60;99.90
25628;DHT22;40915;50.826;4.356;2022-08-01T14:20:57;26.70;99.90
25628;DHT22;40915;50.826;4.356;2022-08-01T14:23:22;26.50;99.90
25628;DHT22;40915;50.826;4.356;2022-08-01T14:25:48;26.40;99.90
25628;DHT22;40915;50.826;4.356;2022-08-01T14:28:14;26.30;99.90
25628;DHT22;40915;50.826;4.356;2022-08-01T14:30:40;26.40;99.90
25628;DHT22;40915;50.826;4.356;2022-08-01T14:33:08;26.50;99.90
25628;DHT22;40915;50.826;4.356;2022-08-01T14:35:33;26.50;99.90
25628;DHT22;40915;50.826;4.356;2022-08-01T14:37:59;26.50;99.90
25628;DHT22;40915;50.826;4.356;2022-08-01T14:40:24;26.50;99.90
25628;DHT22;40915;50.826;4.356;2022-08-01T14:42:50;26.50;99.90
25628;DHT22;40915;50.826;4.356;2022-08-01T14:45:16;26.40;99.90
25628;DHT22;40915;50.826;4.356;2022-08-01T14:47:43;26.50;99.90
25628;DHT22;40915;50.826;4.356;2022-08-01T14:50:11;26.50;99.90
25628;DHT22;40915;50.826;4.356;2022-08-01T14:52:39;26.50;99.90
25628;DHT22;40915;50.826;4.356;2022-08-01T14:55:06;26.50;99.90
25628;DHT22;40915;50.826;4.356;2022-08-01T14:57:33;26.60;99.90
25628;DHT22;40915;50.826;4.356;2022-08-01T14:59:59;26.70;99.90
25628;DHT22;40915;50.826;4.356;2022-08-01T15:02:24;26.50;99.90
25628;DHT22;40915;50.826;4.356;2022-08-01T15:04:50;26.40;99.90
25628;DHT22;40915;50.826;4.356;2022-08-01T15:07:17;26.40;99.90
25628;DHT22;40915;50.826;4.356;2022-08-01T15:09:43;26.40;99.90
25628;DHT22;40915;50.826;4.356;2022-08-01T15:12:09;26.50;99.90
25628;DHT22;40915;50.826;4.356;2022-08-01T15:14:35;26.50;99.90
25628;DHT22;40915;50.826;4.356;2022-08-01T15:17:22;26.50;99.90
25628;DHT22;40915;50.826;4.356;2022-08-01T15:19:49;26.30;99.90
25628;DHT22;40915;50.826;4.356;2022-08-01T15:22:16;26.10;99.90
25628;DHT22;40915;50.826;4.356;2022-08-01T15:24:42;26.00;99.90
25628;DHT22;40915;50.826;4.356;2022-08-01T15:27:09;26.10;99.90
25628;DHT22;40915;50.826;4.356;2022-08-01T15:29:35;26.10;99.90
25628;DHT22;40915;50.826;4.356;2022-08-01T15:32:05;26.10;99.90
25628;DHT22;40915;50.826;4.356;2022-08-01T15:34:32;26.10;99.90
25628;DHT22;40915;50.826;4.356;2022-08-01T15:36:58;26.10;99.90
25628;DHT22;40915;50.826;4.356;2022-08-01T15:39:24;26.20;99.90
25628;DHT22;40915;50.826;4.356;2022-08-01T15:41:50;26.30;99.90
25628;DHT22;40915;50.826;4.356;2022-08-01T15:44:16;26.40;99.90
25628;DHT22;40915;50.826;4.356;2022-08-01T15:46:50;26.40;99.90
25628;DHT22;40915;50.826;4.356;2022-08-01T15:49:16;26.30;99.90
25628;DHT22;40915;50.826;4.356;2022-08-01T15:51:42;26.40;99.90
25628;DHT22;40915;50.826;4.356;2022-08-01T15:54:09;26.50;99.90
25628;DHT22;40915;50.826;4.356;2022-08-01T15:56:36;26.60;99.90
25628;DHT22;40915;50.826;4.356;2022-08-01T15:59:03;26.30;99.90
25628;DHT22;40915;50.826;4.356;2022-08-01T16:01:28;26.20;99.90
25628;DHT22;40915;50.826;4.356;2022-08-01T16:03:55;26.10;99.90
25628;DHT22;40915;50.826;4.356;2022-08-01T16:06:21;26.10;99.90
25628;DHT22;40915;50.826;4.356;2022-08-01T16:08:47;26.10;99.90
25628;DHT22;40915;50.826;4.356;2022-08-01T16:11:13;25.90;99.90
25628;DHT22;40915;50.826;4.356;2022-08-01T16:13:38;26.00;99.90
25628;DHT22;40915;50.826;4.356;2022-08-01T16:16:06;26.20;99.90
25628;DHT22;40915;50.826;4.356;2022-08-01T16:18:32;26.20;99.90
25628;DHT22;40915;50.826;4.356;2022-08-01T16:20:58;26.30;99.90
25628;DHT22;40915;50.826;4.356;2022-08-01T16:23:24;26.30;99.90
25628;DHT22;40915;50.826;4.356;2022-08-01T16:25:50;26.40;99.90
25628;DHT22;40915;50.826;4.356;2022-08-01T16:28:17;26.40;99.90
25628;DHT22;40915;50.826;4.356;2022-08-01T16:30:43;26.30;99.90
25628;DHT22;40915;50.826;4.356;2022-08-01T16:33:09;26.30;99.90
25628;DHT22;40915;50.826;4.356;2022-08-01T16:35:35;26.30;99.90
25628;DHT22;40915;50.826;4.356;2022-08-01T16:38:01;26.10;99.90
25628;DHT22;40915;50.826;4.356;2022-08-01T16:40:27;26.10;99.90
25628;DHT22;40915;50.826;4.356;2022-08-01T16:42:53;26.10;99.90
25628;DHT22;40915;50.826;4.356;2022-08-01T16:45:18;25.90;99.90
25628;DHT22;40915;50.826;4.356;2022-08-01T16:47:46;25.90;99.90
25628;DHT22;40915;50.826;4.356;2022-08-01T16:50:13;25.90;99.90
25628;DHT22;40915;50.826;4.356;2022-08-01T16:52:39;26.00;99.90
25628;DHT22;40915;50.826;4.356;2022-08-01T16:55:05;26.10;99.90
25628;DHT22;40915;50.826;4.356;2022-08-01T16:57:32;26.10;99.90
25628;DHT22;40915;50.826;4.356;2022-08-01T17:00:10;26.00;99.90
25628;DHT22;40915;50.826;4.356;2022-08-01T17:02:38;26.10;99.90
25628;DHT22;40915;50.826;4.356;2022-08-01T17:05:05;26.00;99.90
25628;DHT22;40915;50.826;4.356;2022-08-01T17:07:31;26.00;99.90
25628;DHT22;40915;50.826;4.356;2022-08-01T17:09:57;26.00;99.90
25628;DHT22;40915;50.826;4.356;2022-08-01T17:12:23;26.00;99.90
25628;DHT22;40915;50.826;4.356;2022-08-01T17:14:49;26.00;99.90
25628;DHT22;40915;50.826;4.356;2022-08-01T17:17:15;25.80;99.90
25628;DHT22;40915;50.826;4.356;2022-08-01T17:19:41;25.80;99.90
25628;DHT22;40915;50.826;4.356;2022-08-01T17:22:07;25.80;99.90
25628;DHT22;40915;50.826;4.356;2022-08-01T17:24:32;25.80;99.90
25628;DHT22;40915;50.826;4.356;2022-08-01T17:26:59;25.80;99.90
25628;DHT22;40915;50.826;4.356;2022-08-01T17:29:25;25.80;99.90
25628;DHT22;40915;50.826;4.356;2022-08-01T17:31:52;25.80;99.90
25628;DHT22;40915;50.826;4.356;2022-08-01T17:34:17;25.80;99.90
25628;DHT22;40915;50.826;4.356;2022-08-01T17:36:43;25.90;99.90
25628;DHT22;40915;50.826;4.356;2022-08-01T17:39:09;25.80;99.90
25628;DHT22;40915;50.826;4.356;2022-08-01T17:41:36;25.80;99.90
25628;DHT22;40915;50.826;4.356;2022-08-01T17:44:03;25.70;99.90
25628;DHT22;40915;50.826;4.356;2022-08-01T17:46:28;25.70;99.90
25628;DHT22;40915;50.826;4.356;2022-08-01T17:48:55;25.60;99.90
25628;DHT22;40915;50.826;4.356;2022-08-01T17:51:21;25.60;99.90
25628;DHT22;40915;50.826;4.356;2022-08-01T17:53:46;25.60;99.90
25628;DHT22;40915;50.826;4.356;2022-08-01T17:56:12;25.50;99.90
25628;DHT22;40915;50.826;4.356;2022-08-01T17:58:38;25.70;99.90
25628;DHT22;40915;50.826;4.356;2022-08-01T18:01:03;25.50;99.90
25628;DHT22;40915;50.826;4.356;2022-08-01T18:03:29;25.40;99.90
25628;DHT22;40915;50.826;4.356;2022-08-01T18:06:01;25.30;99.90
25628;DHT22;40915;50.826;4.356;2022-08-01T18:08:27;25.30;99.90
25628;DHT22;40915;50.826;4.356;2022-08-01T18:10:56;25.30;99.90
25628;DHT22;40915;50.826;4.356;2022-08-01T18:13:23;25.30;99.90
25628;DHT22;40915;50.826;4.356;2022-08-01T18:15:49;25.10;99.90
25628;DHT22;40915;50.826;4.356;2022-08-01T18:18:15;25.00;99.90
25628;DHT22;40915;50.826;4.356;2022-08-01T18:20:44;25.00;99.90
25628;DHT22;40915;50.826;4.356;2022-08-01T18:23:09;24.90;99.90
25628;DHT22;40915;50.826;4.356;2022-08-01T18:25:39;24.80;99.90
25628;DHT22;40915;50.826;4.356;2022-08-01T18:28:05;24.80;99.90
25628;DHT22;40915;50.826;4.356;2022-08-01T18:30:31;24.70;99.90
25628;DHT22;40915;50.826;4.356;2022-08-01T18:32:57;24.80;99.90
25628;DHT22;40915;50.826;4.356;2022-08-01T18:35:24;24.80;99.90
25628;DHT22;40915;50.826;4.356;2022-08-01T18:37:51;24.70;99.90
25628;DHT22;40915;50.826;4.356;2022-08-01T18:40:17;24.70;99.90
25628;DHT22;40915;50.826;4.356;2022-08-01T18:42:44;24.60;99.90
25628;DHT22;40915;50.826;4.356;2022-08-01T18:45:10;24.50;99.90
25628;DHT22;40915;50.826;4.356;2022-08-01T18:47:37;24.40;99.90
25628;DHT22;40915;50.826;4.356;2022-08-01T18:50:04;24.40;99.90
25628;DHT22;40915;50.826;4.356;2022-08-01T18:52:30;24.30;99.90
25628;DHT22;40915;50.826;4.356;2022-08-01T18:54:56;24.20;99.90
25628;DHT22;40915;50.826;4.356;2022-08-01T18:57:22;24.20;99.90
25628;DHT22;40915;50.826;4.356;2022-08-01T18:59:48;24.10;99.90
25628;DHT22;40915;50.826;4.356;2022-08-01T19:02:13;24.00;99.90
25628;DHT22;40915;50.826;4.356;2022-08-01T19:04:41;24.00;99.90
25628;DHT22;40915;50.826;4.356;2022-08-01T19:07:08;24.00;99.90
25628;DHT22;40915;50.826;4.356;2022-08-01T19:09:33;23.90;99.90
25628;DHT22;40915;50.826;4.356;2022-08-01T19:11:59;23.90;99.90
25628;DHT22;40915;50.826;4.356;2022-08-01T19:14:25;23.80;99.90
25628;DHT22;40915;50.826;4.356;2022-08-01T19:16:50;23.80;99.90
25628;DHT22;40915;50.826;4.356;2022-08-01T19:19:16;23.80;99.90
25628;DHT22;40915;50.826;4.356;2022-08-01T19:21:41;23.70;99.90
25628;DHT22;40915;50.826;4.356;2022-08-01T19:24:07;23.70;99.90
25628;DHT22;40915;50.826;4.356;2022-08-01T19:29:18;23.60;99.90
